createdAt,value
2018-07-13T00:00:43.606Z,-71.00
2018-07-13T00:01:43.642Z,-72.00
2018-07-13T00:02:43.665Z,-72.00
2018-07-13T00:03:43.683Z,-72.00
2018-07-13T00:04:43.701Z,-72.00
2018-07-13T00:05:43.746Z,-72.00
2018-07-13T00:06:43.745Z,-72.00
2018-07-13T00:07:44.776Z,-72.00
2018-07-13T00:08:43.776Z,-72.00
2018-07-13T00:09:43.839Z,-72.00
2018-07-13T00:10:43.814Z,-72.00
2018-07-13T00:11:43.861Z,-72.00
2018-07-13T00:12:43.869Z,-72.00
2018-07-13T00:13:43.899Z,-72.00
2018-07-13T00:14:43.900Z,-72.00
2018-07-13T00:15:43.931Z,-72.00
2018-07-13T00:16:43.935Z,-71.00
2018-07-13T00:17:43.965Z,-72.00
2018-07-13T00:18:43.993Z,-72.00
2018-07-13T00:19:45.075Z,-72.00
2018-07-13T00:20:44.027Z,-72.00
2018-07-13T00:21:44.053Z,-72.00
2018-07-13T00:22:44.078Z,-72.00
2018-07-13T00:23:44.184Z,-72.00
2018-07-13T00:24:44.113Z,-72.00
2018-07-13T00:25:44.200Z,-72.00
2018-07-13T00:26:44.163Z,-72.00
2018-07-13T00:27:44.221Z,-72.00
2018-07-13T00:28:44.187Z,-72.00
2018-07-13T00:29:44.317Z,-72.00
2018-07-13T00:30:44.231Z,-72.00
2018-07-13T00:31:44.329Z,-72.00
2018-07-13T00:32:44.289Z,-72.00
2018-07-13T00:33:44.353Z,-72.00
2018-07-13T00:34:44.302Z,-72.00
2018-07-13T00:35:44.349Z,-72.00
2018-07-13T00:36:44.345Z,-72.00
2018-07-13T00:37:44.468Z,-72.00
2018-07-13T00:38:44.396Z,-72.00
2018-07-13T00:39:44.456Z,-72.00
2018-07-13T00:40:44.447Z,-72.00
2018-07-13T00:41:44.459Z,-72.00
2018-07-13T00:42:44.475Z,-72.00
2018-07-13T00:43:44.506Z,-72.00
2018-07-13T00:44:44.521Z,-72.00
2018-07-13T00:45:44.566Z,-72.00
2018-07-13T00:46:44.587Z,-72.00
2018-07-13T00:47:44.572Z,-72.00
2018-07-13T00:48:44.592Z,-72.00
2018-07-13T00:49:44.621Z,-72.00
2018-07-13T00:50:44.635Z,-72.00
2018-07-13T00:51:44.669Z,-72.00
2018-07-13T00:52:44.684Z,-72.00
2018-07-13T00:53:44.712Z,-71.00
2018-07-13T00:54:44.713Z,-72.00
2018-07-13T00:55:44.754Z,-72.00
2018-07-13T00:56:44.756Z,-72.00
2018-07-13T00:57:44.784Z,-72.00
2018-07-13T00:58:44.796Z,-72.00
2018-07-13T00:59:44.821Z,-72.00
2018-07-13T01:00:44.865Z,-73.00
2018-07-13T01:01:44.884Z,-73.00
2018-07-13T01:02:44.880Z,-72.00
2018-07-13T01:03:44.920Z,-73.00
2018-07-13T01:04:44.936Z,-73.00
2018-07-13T01:05:44.967Z,-73.00
2018-07-13T01:06:44.965Z,-73.00
2018-07-13T01:07:44.984Z,-73.00
2018-07-13T01:08:45.005Z,-73.00
2018-07-13T01:09:45.036Z,-73.00
2018-07-13T01:10:45.042Z,-73.00
2018-07-13T01:11:45.087Z,-73.00
2018-07-13T01:12:45.108Z,-73.00
2018-07-13T01:13:45.122Z,-73.00
2018-07-13T01:14:45.137Z,-73.00
2018-07-13T01:15:45.159Z,-73.00
2018-07-13T01:16:45.165Z,-73.00
2018-07-13T01:17:45.195Z,-73.00
2018-07-13T01:18:45.212Z,-73.00
2018-07-13T01:19:45.252Z,-73.00
2018-07-13T01:20:45.255Z,-73.00
2018-07-13T01:21:45.280Z,-73.00
2018-07-13T01:22:45.291Z,-73.00
2018-07-13T01:23:45.320Z,-73.00
2018-07-13T01:24:45.328Z,-73.00
2018-07-13T01:25:45.360Z,-73.00
2018-07-13T01:26:45.372Z,-73.00
2018-07-13T01:27:45.425Z,-73.00
2018-07-13T01:28:45.408Z,-73.00
2018-07-13T01:29:45.450Z,-73.00
2018-07-13T01:30:45.469Z,-73.00
2018-07-13T01:31:45.494Z,-73.00
2018-07-13T01:32:45.485Z,-73.00
2018-07-13T01:33:45.519Z,-73.00
2018-07-13T01:34:45.541Z,-73.00
2018-07-13T01:35:45.561Z,-73.00
2018-07-13T01:36:45.569Z,-73.00
2018-07-13T01:37:45.590Z,-73.00
2018-07-13T01:38:45.611Z,-73.00
2018-07-13T01:39:45.656Z,-73.00
2018-07-13T01:40:45.648Z,-73.00
2018-07-13T01:41:45.677Z,-73.00
2018-07-13T01:42:45.693Z,-73.00
2018-07-13T01:43:45.713Z,-73.00
2018-07-13T01:44:45.738Z,-73.00
2018-07-13T01:45:45.833Z,-73.00
2018-07-13T01:46:45.787Z,-73.00
2018-07-13T01:47:45.842Z,-73.00
2018-07-13T01:48:45.809Z,-73.00
2018-07-13T01:49:46.898Z,-73.00
2018-07-13T01:50:45.856Z,-73.00
2018-07-13T01:51:45.994Z,-74.00
2018-07-13T01:52:45.891Z,-73.00
2018-07-13T01:53:46.009Z,-73.00
2018-07-13T01:54:45.927Z,-73.00
2018-07-13T01:55:46.053Z,-73.00
2018-07-13T01:56:45.978Z,-73.00
2018-07-13T01:57:46.042Z,-73.00
2018-07-13T01:58:46.017Z,-73.00
2018-07-13T01:59:46.117Z,-73.00
2018-07-13T02:00:46.082Z,-76.00
2018-07-13T02:01:48.095Z,-76.00
2018-07-13T02:02:46.117Z,-76.00
2018-07-13T02:03:46.156Z,-76.00
2018-07-13T02:04:46.132Z,-76.00
2018-07-13T02:05:46.166Z,-76.00
2018-07-13T02:06:46.174Z,-76.00
2018-07-13T02:07:47.216Z,-76.00
2018-07-13T02:08:46.226Z,-76.00
2018-07-13T02:09:46.267Z,-76.00
2018-07-13T02:10:46.259Z,-76.00
2018-07-13T02:11:47.286Z,-76.00
2018-07-13T02:12:46.295Z,-76.00
2018-07-13T02:13:46.331Z,-76.00
2018-07-13T02:14:46.383Z,-76.00
2018-07-13T02:15:46.362Z,-76.00
2018-07-13T02:16:46.370Z,-76.00
2018-07-13T02:17:46.408Z,-76.00
2018-07-13T02:18:46.418Z,-76.00
2018-07-13T02:19:46.450Z,-76.00
2018-07-13T02:20:46.460Z,-76.00
2018-07-13T02:21:46.488Z,-76.00
2018-07-13T02:22:46.496Z,-76.00
2018-07-13T02:23:46.517Z,-75.00
2018-07-13T02:24:46.551Z,-76.00
2018-07-13T02:25:46.568Z,-76.00
2018-07-13T02:26:46.594Z,-76.00
2018-07-13T02:27:46.605Z,-76.00
2018-07-13T02:28:46.628Z,-76.00
2018-07-13T02:29:48.658Z,-76.00
2018-07-13T02:30:46.672Z,-75.00
2018-07-13T02:31:48.690Z,-76.00
2018-07-13T02:32:46.697Z,-76.00
2018-07-13T02:33:46.793Z,-76.00
2018-07-13T02:34:46.736Z,-76.00
2018-07-13T02:35:46.762Z,-76.00
2018-07-13T02:36:46.775Z,-76.00
2018-07-13T02:37:47.806Z,-76.00
2018-07-13T02:38:46.825Z,-76.00
2018-07-13T02:39:46.858Z,-76.00
2018-07-13T02:40:46.864Z,-76.00
2018-07-13T02:41:46.884Z,-76.00
2018-07-13T02:42:46.899Z,-76.00
2018-07-13T02:43:46.915Z,-76.00
2018-07-13T02:44:46.921Z,-76.00
2018-07-13T02:45:46.945Z,-76.00
2018-07-13T02:46:47.002Z,-76.00
2018-07-13T02:47:49.003Z,-76.00
2018-07-13T02:48:47.014Z,-76.00
2018-07-13T02:49:47.027Z,-76.00
2018-07-13T02:50:47.060Z,-76.00
2018-07-13T02:51:47.083Z,-76.00
2018-07-13T02:52:47.088Z,-76.00
2018-07-13T02:53:47.130Z,-76.00
2018-07-13T02:54:47.142Z,-76.00
2018-07-13T02:55:47.167Z,-76.00
2018-07-13T02:56:47.182Z,-76.00
2018-07-13T02:57:47.200Z,-76.00
2018-07-13T02:58:47.196Z,-76.00
2018-07-13T02:59:48.236Z,-76.00
2018-07-13T03:00:47.244Z,-76.00
2018-07-13T03:01:47.286Z,-76.00
2018-07-13T03:02:47.307Z,-76.00
2018-07-13T03:03:47.325Z,-76.00
2018-07-13T03:04:47.321Z,-75.00
2018-07-13T03:05:47.355Z,-76.00
2018-07-13T03:06:47.363Z,-76.00
2018-07-13T03:07:47.402Z,-76.00
2018-07-13T03:08:47.426Z,-76.00
2018-07-13T03:09:47.431Z,-76.00
2018-07-13T03:10:47.440Z,-76.00
2018-07-13T03:11:47.487Z,-76.00
2018-07-13T03:12:47.494Z,-76.00
2018-07-13T03:13:47.506Z,-76.00
2018-07-13T03:14:47.508Z,-76.00
2018-07-13T03:15:49.566Z,-76.00
2018-07-13T03:16:47.565Z,-75.00
2018-07-13T03:17:48.581Z,-76.00
2018-07-13T03:18:47.602Z,-76.00
2018-07-13T03:19:47.649Z,-76.00
2018-07-13T03:20:47.637Z,-76.00
2018-07-13T03:21:47.679Z,-76.00
2018-07-13T03:22:47.687Z,-76.00
2018-07-13T03:23:48.737Z,-76.00
2018-07-13T03:24:47.743Z,-76.00
2018-07-13T03:25:47.807Z,-76.00
2018-07-13T03:26:47.754Z,-76.00
2018-07-13T03:27:48.872Z,-76.00
2018-07-13T03:28:47.802Z,-76.00
2018-07-13T03:29:47.848Z,-74.00
2018-07-13T03:30:47.832Z,-74.00
2018-07-13T03:31:47.989Z,-74.00
2018-07-13T03:32:47.865Z,-74.00
2018-07-13T03:33:47.973Z,-74.00
2018-07-13T03:34:47.934Z,-74.00
2018-07-13T03:35:47.989Z,-74.00
2018-07-13T03:36:47.981Z,-74.00
2018-07-13T03:37:48.117Z,-74.00
2018-07-13T03:38:48.057Z,-74.00
2018-07-13T03:39:52.611Z,-74.00
2018-07-13T03:40:48.045Z,-74.00
2018-07-13T03:41:48.110Z,-74.00
2018-07-13T03:42:48.088Z,-74.00
2018-07-13T03:43:48.114Z,-74.00
2018-07-13T03:44:48.127Z,-74.00
2018-07-13T03:45:48.154Z,-74.00
2018-07-13T03:46:48.162Z,-74.00
2018-07-13T03:47:53.049Z,-74.00
2018-07-13T03:48:48.184Z,-73.00
2018-07-13T03:49:49.221Z,-74.00
2018-07-13T03:50:48.240Z,-73.00
2018-07-13T03:51:48.254Z,-74.00
2018-07-13T03:52:48.284Z,-73.00
2018-07-13T03:53:48.304Z,-74.00
2018-07-13T03:54:48.307Z,-73.00
2018-07-13T03:55:48.352Z,-74.00
2018-07-13T03:56:48.332Z,-74.00
2018-07-13T03:57:48.368Z,-74.00
2018-07-13T03:58:48.387Z,-74.00
2018-07-13T03:59:48.416Z,-74.00
2018-07-13T04:00:48.436Z,-74.00
2018-07-13T04:01:49.450Z,-73.00
2018-07-13T04:02:48.456Z,-74.00
2018-07-13T04:03:48.493Z,-73.00
2018-07-13T04:04:48.498Z,-74.00
2018-07-13T04:05:48.548Z,-74.00
2018-07-13T04:06:48.536Z,-74.00
2018-07-13T04:07:48.563Z,-74.00
2018-07-13T04:08:48.580Z,-73.00
2018-07-13T04:09:48.601Z,-74.00
2018-07-13T04:10:48.615Z,-74.00
2018-07-13T04:11:50.666Z,-74.00
2018-07-13T04:12:48.668Z,-74.00
2018-07-13T04:13:50.693Z,-74.00
2018-07-13T04:14:48.753Z,-74.00
2018-07-13T04:15:49.727Z,-73.00
2018-07-13T04:16:48.743Z,-74.00
2018-07-13T04:17:53.562Z,-74.00
2018-07-13T04:18:48.793Z,-74.00
2018-07-13T04:19:48.815Z,-74.00
2018-07-13T04:20:48.810Z,-74.00
2018-07-13T04:21:48.846Z,-73.00
2018-07-13T04:22:48.862Z,-74.00
2018-07-13T04:23:48.873Z,-74.00
2018-07-13T04:24:48.910Z,-74.00
2018-07-13T04:25:49.938Z,-74.00
2018-07-13T04:26:48.925Z,-74.00
2018-07-13T04:27:49.980Z,-74.00
2018-07-13T04:28:49.017Z,-74.00
2018-07-13T04:29:49.013Z,-74.00
2018-07-13T04:30:49.012Z,-74.00
2018-07-13T04:31:50.056Z,-74.00
2018-07-13T04:32:49.055Z,-74.00
2018-07-13T04:33:49.078Z,-74.00
2018-07-13T04:34:49.093Z,-73.00
2018-07-13T04:35:50.111Z,-74.00
2018-07-13T04:36:49.140Z,-74.00
2018-07-13T04:37:49.152Z,-74.00
2018-07-13T04:38:49.184Z,-72.00
2018-07-13T04:39:49.188Z,-72.00
2018-07-13T04:40:49.293Z,-72.00
2018-07-13T04:41:49.235Z,-71.00
2018-07-13T04:42:49.252Z,-71.00
2018-07-13T04:43:50.282Z,-72.00
2018-07-13T04:44:49.299Z,-72.00
2018-07-13T04:45:49.310Z,-72.00
2018-07-13T04:46:49.339Z,-72.00
2018-07-13T04:47:49.358Z,-72.00
2018-07-13T04:48:49.372Z,-72.00
2018-07-13T04:49:49.393Z,-72.00
2018-07-13T04:50:49.405Z,-72.00
2018-07-13T04:51:49.458Z,-72.00
2018-07-13T04:52:49.439Z,-72.00
2018-07-13T04:53:49.473Z,-72.00
2018-07-13T04:54:49.465Z,-72.00
2018-07-13T04:55:49.513Z,-72.00
2018-07-13T04:56:49.511Z,-71.00
2018-07-13T04:57:49.534Z,-72.00
2018-07-13T04:58:49.565Z,-72.00
2018-07-13T04:59:49.601Z,-72.00
2018-07-13T05:00:49.591Z,-72.00
2018-07-13T05:01:49.656Z,-72.00
2018-07-13T05:02:49.647Z,-72.00
2018-07-13T05:03:49.664Z,-72.00
2018-07-13T05:04:49.678Z,-72.00
2018-07-13T05:05:49.720Z,-72.00
2018-07-13T05:06:49.708Z,-72.00
2018-07-13T05:07:49.736Z,-72.00
2018-07-13T05:08:49.747Z,-71.00
2018-07-13T05:09:49.774Z,-72.00
2018-07-13T05:10:49.792Z,-72.00
2018-07-13T05:11:49.821Z,-72.00
2018-07-13T05:12:49.833Z,-72.00
2018-07-13T05:13:49.870Z,-72.00
2018-07-13T05:14:49.880Z,-72.00
2018-07-13T05:15:49.908Z,-71.00
2018-07-13T05:16:49.915Z,-72.00
2018-07-13T05:17:49.942Z,-72.00
2018-07-13T05:18:49.949Z,-71.00
2018-07-13T05:19:49.964Z,-72.00
2018-07-13T05:20:49.989Z,-72.00
2018-07-13T05:21:50.005Z,-72.00
2018-07-13T05:22:50.024Z,-72.00
2018-07-13T05:23:50.035Z,-72.00
2018-07-13T05:24:50.064Z,-72.00
2018-07-13T05:25:50.105Z,-71.00
2018-07-13T05:26:50.101Z,-72.00
2018-07-13T05:27:50.119Z,-72.00
2018-07-13T05:28:50.141Z,-72.00
2018-07-13T05:29:50.190Z,-72.00
2018-07-13T05:30:50.197Z,-72.00
2018-07-13T05:31:50.205Z,-72.00
2018-07-13T05:32:50.228Z,-72.00
2018-07-13T05:33:50.275Z,-72.00
2018-07-13T05:34:50.246Z,-71.00
2018-07-13T05:35:50.275Z,-72.00
2018-07-13T05:36:50.299Z,-72.00
2018-07-13T05:37:50.314Z,-72.00
2018-07-13T05:38:50.335Z,-72.00
2018-07-13T05:39:50.372Z,-72.00
2018-07-13T05:40:50.365Z,-72.00
2018-07-13T05:41:50.431Z,-72.00
2018-07-13T05:42:50.449Z,-72.00
2018-07-13T05:43:50.455Z,-72.00
2018-07-13T05:44:50.439Z,-72.00
2018-07-13T05:45:50.566Z,-72.00
2018-07-13T05:46:50.488Z,-72.00
2018-07-13T05:47:50.587Z,-72.00
2018-07-13T05:48:50.526Z,-72.00
2018-07-13T05:49:50.647Z,-72.00
2018-07-13T05:50:50.557Z,-72.00
2018-07-13T05:51:51.661Z,-74.00
2018-07-13T05:52:50.657Z,-74.00
2018-07-13T05:53:52.717Z,-74.00
2018-07-13T05:54:50.651Z,-74.00
2018-07-13T05:55:51.767Z,-74.00
2018-07-13T05:56:50.700Z,-74.00
2018-07-13T05:57:50.854Z,-74.00
2018-07-13T05:58:50.721Z,-74.00
2018-07-13T05:59:50.765Z,-74.00
2018-07-13T06:00:50.760Z,-74.00
2018-07-13T06:01:55.717Z,-74.00
2018-07-13T06:02:50.809Z,-74.00
2018-07-13T06:03:51.951Z,-74.00
2018-07-13T06:04:50.845Z,-74.00
2018-07-13T06:05:52.963Z,-74.00
2018-07-13T06:06:50.893Z,-75.00
2018-07-13T06:07:50.938Z,-74.00
2018-07-13T06:08:50.909Z,-74.00
2018-07-13T06:09:55.644Z,-74.00
2018-07-13T06:10:50.965Z,-74.00
2018-07-13T06:11:51.045Z,-74.00
2018-07-13T06:12:50.997Z,-74.00
2018-07-13T06:13:51.088Z,-74.00
2018-07-13T06:14:51.105Z,-74.00
2018-07-13T06:15:52.112Z,-74.00
2018-07-13T06:16:51.063Z,-74.00
2018-07-13T06:17:52.223Z,-73.00
2018-07-13T06:18:51.164Z,-74.00
2018-07-13T06:19:52.211Z,-73.00
2018-07-13T06:20:51.218Z,-73.00
2018-07-13T06:21:52.225Z,-73.00
2018-07-13T06:22:51.173Z,-73.00
2018-07-13T06:23:51.240Z,-73.00
2018-07-13T06:24:51.231Z,-74.00
2018-07-13T06:26:08.148Z,-73.00
2018-07-13T06:26:51.271Z,-73.00
2018-07-13T06:27:51.393Z,-73.00
2018-07-13T06:28:51.295Z,-74.00
2018-07-13T06:29:51.359Z,-73.00
2018-07-13T06:30:51.354Z,-74.00
2018-07-13T06:31:53.434Z,-73.00
2018-07-13T06:32:51.402Z,-73.00
2018-07-13T06:33:52.553Z,-73.00
2018-07-13T06:34:51.427Z,-74.00
2018-07-13T06:35:51.509Z,-73.00
2018-07-13T06:36:51.452Z,-73.00
2018-07-13T06:37:51.512Z,-74.00
2018-07-13T06:38:51.549Z,-73.00
2018-07-13T06:39:51.662Z,-73.00
2018-07-13T06:40:51.540Z,-73.00
2018-07-13T06:41:58.204Z,-73.00
2018-07-13T06:42:51.605Z,-74.00
2018-07-13T06:43:57.567Z,-73.00
2018-07-13T06:44:51.646Z,-73.00
2018-07-13T06:45:51.645Z,-73.00
2018-07-13T06:46:51.710Z,-73.00
2018-07-13T06:47:51.816Z,-73.00
2018-07-13T06:48:51.706Z,-73.00
2018-07-13T06:49:51.708Z,-76.00
2018-07-13T06:50:51.787Z,-76.00
2018-07-13T06:51:52.739Z,-76.00
2018-07-13T06:52:51.770Z,-76.00
2018-07-13T06:53:51.797Z,-76.00
2018-07-13T06:54:51.821Z,-77.00
2018-07-13T06:55:51.836Z,-76.00
2018-07-13T06:56:51.846Z,-76.00
2018-07-13T06:57:51.956Z,-76.00
2018-07-13T06:58:51.888Z,-76.00
2018-07-13T06:59:51.958Z,-76.00
2018-07-13T07:00:51.919Z,-74.00
2018-07-13T07:01:51.988Z,-73.00
2018-07-13T07:02:51.970Z,-73.00
2018-07-13T07:03:53.023Z,-74.00
2018-07-13T07:04:52.017Z,-73.00
2018-07-13T07:05:53.154Z,-74.00
2018-07-13T07:06:52.045Z,-73.00
2018-07-13T07:07:52.114Z,-73.00
2018-07-13T07:08:52.075Z,-74.00
2018-07-13T07:09:59.208Z,-74.00
2018-07-13T07:10:52.127Z,-74.00
2018-07-13T07:11:52.308Z,-74.00
2018-07-13T07:12:52.147Z,-74.00
2018-07-13T07:13:52.296Z,-74.00
2018-07-13T07:14:52.205Z,-74.00
2018-07-13T07:15:57.266Z,-74.00
2018-07-13T07:16:52.239Z,-74.00
2018-07-13T07:17:52.292Z,-74.00
2018-07-13T07:18:52.315Z,-74.00
2018-07-13T07:19:52.288Z,-75.00
2018-07-13T07:20:52.423Z,-76.00
2018-07-13T07:21:52.329Z,-76.00
2018-07-13T07:22:52.426Z,-76.00
2018-07-13T07:23:52.436Z,-76.00
2018-07-13T07:24:52.440Z,-76.00
2018-07-13T07:25:52.422Z,-76.00
2018-07-13T07:26:52.549Z,-76.00
2018-07-13T07:27:52.455Z,-76.00
2018-07-13T07:28:52.568Z,-76.00
2018-07-13T07:29:52.486Z,-76.00
2018-07-13T07:30:52.590Z,-76.00
2018-07-13T07:31:52.537Z,-76.00
2018-07-13T07:32:52.602Z,-74.00
2018-07-13T07:33:52.561Z,-73.00
2018-07-13T07:34:52.612Z,-73.00
2018-07-13T07:35:52.625Z,-73.00
2018-07-13T07:36:57.631Z,-74.00
2018-07-13T07:37:52.648Z,-74.00
2018-07-13T07:38:54.769Z,-74.00
2018-07-13T07:39:52.701Z,-74.00
2018-07-13T07:40:52.750Z,-73.00
2018-07-13T07:41:52.726Z,-73.00
2018-07-13T07:42:52.775Z,-73.00
2018-07-13T07:43:52.773Z,-73.00
2018-07-13T07:44:52.861Z,-74.00
2018-07-13T07:45:52.820Z,-73.00
2018-07-13T07:46:53.909Z,-73.00
2018-07-13T07:47:52.838Z,-73.00
2018-07-13T07:48:54.972Z,-74.00
2018-07-13T07:49:52.864Z,-74.00
2018-07-13T07:50:53.948Z,-74.00
2018-07-13T07:51:52.904Z,-73.00
2018-07-13T07:52:58.679Z,-73.00
2018-07-13T07:53:52.969Z,-73.00
2018-07-13T07:54:54.082Z,-73.00
2018-07-13T07:55:52.998Z,-74.00
2018-07-13T07:56:53.057Z,-73.00
2018-07-13T07:57:53.045Z,-74.00
2018-07-13T07:58:53.172Z,-73.00
2018-07-13T07:59:53.072Z,-74.00
2018-07-13T08:00:53.201Z,-73.00
2018-07-13T08:01:53.232Z,-74.00
2018-07-13T08:02:54.596Z,-73.00
2018-07-13T08:03:53.158Z,-75.00
2018-07-13T08:04:58.242Z,-76.00
2018-07-13T08:05:53.201Z,-76.00
2018-07-13T08:06:53.636Z,-76.00
2018-07-13T08:07:53.220Z,-77.00
2018-07-13T08:08:59.170Z,-75.00
2018-07-13T08:09:53.293Z,-76.00
2018-07-13T08:10:53.373Z,-77.00
2018-07-13T08:11:53.302Z,-77.00
2018-07-13T08:12:53.368Z,-76.00
2018-07-13T08:13:53.403Z,-77.00
2018-07-13T08:14:54.439Z,-76.00
2018-07-13T08:15:53.384Z,-76.00
2018-07-13T08:17:04.151Z,-76.00
2018-07-13T08:17:53.505Z,-76.00
2018-07-13T08:18:53.494Z,-75.00
2018-07-13T08:19:53.483Z,-76.00
2018-07-13T08:20:53.506Z,-77.00
2018-07-13T08:21:53.500Z,-76.00
2018-07-13T08:22:53.651Z,-76.00
2018-07-13T08:23:53.538Z,-76.00
2018-07-13T08:24:53.638Z,-76.00
2018-07-13T08:25:53.586Z,-77.00
2018-07-13T08:26:53.648Z,-77.00
2018-07-13T08:27:53.606Z,-76.00
2018-07-13T08:28:53.715Z,-79.00
2018-07-13T08:29:53.651Z,-76.00
2018-07-13T08:30:53.789Z,-77.00
2018-07-13T08:31:53.687Z,-76.00
2018-07-13T08:32:53.805Z,-76.00
2018-07-13T08:33:53.733Z,-76.00
2018-07-13T08:34:53.829Z,-76.00
2018-07-13T08:35:53.766Z,-76.00
2018-07-13T08:36:53.827Z,-76.00
2018-07-13T08:37:53.894Z,-75.00
2018-07-13T08:38:53.964Z,-75.00
2018-07-13T08:39:53.920Z,-76.00
2018-07-13T08:40:53.951Z,-76.00
2018-07-13T08:41:53.878Z,-76.00
2018-07-13T08:42:53.966Z,-76.00
2018-07-13T08:43:53.957Z,-76.00
2018-07-13T08:44:53.978Z,-76.00
2018-07-13T08:45:53.964Z,-76.00
2018-07-13T08:46:55.000Z,-76.00
2018-07-13T08:47:54.051Z,-75.00
2018-07-13T08:48:54.119Z,-76.00
2018-07-13T08:49:54.050Z,-76.00
2018-07-13T08:50:54.102Z,-76.00
2018-07-13T08:51:54.093Z,-76.00
2018-07-13T08:52:54.135Z,-76.00
2018-07-13T08:53:54.130Z,-76.00
2018-07-13T08:54:55.170Z,-76.00
2018-07-13T08:55:54.170Z,-76.00
2018-07-13T08:56:54.253Z,-76.00
2018-07-13T08:57:54.209Z,-76.00
2018-07-13T08:58:55.284Z,-75.00
2018-07-13T08:59:54.314Z,-76.00
2018-07-13T09:00:54.280Z,-76.00
2018-07-13T09:01:54.289Z,-76.00
2018-07-13T09:02:54.399Z,-75.00
2018-07-13T09:03:54.398Z,-76.00
2018-07-13T09:04:54.415Z,-76.00
2018-07-13T09:05:54.433Z,-76.00
2018-07-13T09:06:54.425Z,-76.00
2018-07-13T09:07:54.473Z,-76.00
2018-07-13T09:08:54.554Z,-76.00
2018-07-13T09:09:54.494Z,-73.00
2018-07-13T09:10:54.646Z,-73.00
2018-07-13T09:11:54.593Z,-74.00
2018-07-13T09:12:55.669Z,-74.00
2018-07-13T09:13:54.605Z,-73.00
2018-07-13T09:14:54.584Z,-74.00
2018-07-13T09:15:54.575Z,-74.00
2018-07-13T09:16:54.688Z,-74.00
2018-07-13T09:17:54.605Z,-74.00
2018-07-13T09:18:54.709Z,-74.00
2018-07-13T09:19:54.644Z,-73.00
2018-07-13T09:20:54.712Z,-74.00
2018-07-13T09:21:54.721Z,-74.00
2018-07-13T09:22:56.814Z,-74.00
2018-07-13T09:23:54.725Z,-74.00
2018-07-13T09:24:54.855Z,-74.00
2018-07-13T09:25:54.779Z,-73.00
2018-07-13T09:26:54.874Z,-74.00
2018-07-13T09:27:54.810Z,-73.00
2018-07-13T09:28:54.881Z,-74.00
2018-07-13T09:29:54.853Z,-74.00
2018-07-13T09:31:00.713Z,-74.00
2018-07-13T09:31:54.907Z,-73.00
2018-07-13T09:32:55.029Z,-73.00
2018-07-13T09:33:54.941Z,-74.00
2018-07-13T09:34:55.015Z,-73.00
2018-07-13T09:35:54.959Z,-73.00
2018-07-13T09:36:55.068Z,-73.00
2018-07-13T09:37:55.051Z,-74.00
2018-07-13T09:38:55.137Z,-74.00
2018-07-13T09:39:55.049Z,-74.00
2018-07-13T09:40:55.153Z,-74.00
2018-07-13T09:41:55.102Z,-74.00
2018-07-13T09:42:55.170Z,-74.00
2018-07-13T09:43:55.148Z,-74.00
2018-07-13T09:44:55.176Z,-73.00
2018-07-13T09:45:55.173Z,-74.00
2018-07-13T09:46:56.291Z,-74.00
2018-07-13T09:47:55.234Z,-73.00
2018-07-13T09:48:55.325Z,-73.00
2018-07-13T09:49:55.274Z,-74.00
2018-07-13T09:50:55.322Z,-74.00
2018-07-13T09:51:55.304Z,-74.00
2018-07-13T09:52:56.352Z,-74.00
2018-07-13T09:53:55.422Z,-74.00
2018-07-13T09:54:55.458Z,-73.00
2018-07-13T09:55:55.393Z,-72.00
2018-07-13T09:56:55.482Z,-73.00
2018-07-13T09:57:55.438Z,-72.00
2018-07-13T09:58:55.478Z,-73.00
2018-07-13T09:59:55.481Z,-73.00
2018-07-13T10:00:55.704Z,-73.00
2018-07-13T10:01:55.495Z,-72.00
2018-07-13T10:02:55.605Z,-72.00
2018-07-13T10:03:55.536Z,-73.00
2018-07-13T10:04:55.621Z,-73.00
2018-07-13T10:05:55.583Z,-74.00
2018-07-13T10:06:55.628Z,-74.00
2018-07-13T10:07:55.633Z,-74.00
2018-07-13T10:08:57.685Z,-74.00
2018-07-13T10:09:55.691Z,-73.00
2018-07-13T10:10:55.756Z,-74.00
2018-07-13T10:11:55.698Z,-74.00
2018-07-13T10:12:56.831Z,-74.00
2018-07-13T10:13:55.737Z,-74.00
2018-07-13T10:14:55.881Z,-74.00
2018-07-13T10:15:55.780Z,-74.00
2018-07-13T10:16:55.899Z,-74.00
2018-07-13T10:17:55.828Z,-74.00
2018-07-13T10:18:55.859Z,-74.00
2018-07-13T10:19:55.897Z,-74.00
2018-07-13T10:20:55.904Z,-74.00
2018-07-13T10:21:55.919Z,-74.00
2018-07-13T10:22:55.943Z,-74.00
2018-07-13T10:23:55.971Z,-76.00
2018-07-13T10:24:56.001Z,-75.00
2018-07-13T10:25:56.022Z,-75.00
2018-07-13T10:26:56.027Z,-75.00
2018-07-13T10:27:56.078Z,-76.00
2018-07-13T10:28:56.066Z,-75.00
2018-07-13T10:29:56.097Z,-76.00
2018-07-13T10:30:56.130Z,-76.00
2018-07-13T10:31:56.159Z,-75.00
2018-07-13T10:32:56.159Z,-75.00
2018-07-13T10:33:56.165Z,-74.00
2018-07-13T10:34:56.213Z,-74.00
2018-07-13T10:35:56.225Z,-74.00
2018-07-13T10:36:56.229Z,-74.00
2018-07-13T10:37:56.280Z,-74.00
2018-07-13T10:38:56.280Z,-74.00
2018-07-13T10:39:56.315Z,-73.00
2018-07-13T10:40:56.321Z,-74.00
2018-07-13T10:41:56.343Z,-74.00
2018-07-13T10:42:56.370Z,-74.00
2018-07-13T10:43:57.395Z,-74.00
2018-07-13T10:44:56.411Z,-74.00
2018-07-13T10:45:56.497Z,-73.00
2018-07-13T10:46:56.464Z,-74.00
2018-07-13T10:47:56.547Z,-74.00
2018-07-13T10:48:56.480Z,-74.00
2018-07-13T10:49:56.630Z,-74.00
2018-07-13T10:50:56.545Z,-74.00
2018-07-13T10:51:56.638Z,-74.00
2018-07-13T10:52:56.576Z,-73.00
2018-07-13T10:53:56.640Z,-73.00
2018-07-13T10:54:56.623Z,-73.00
2018-07-13T10:55:56.713Z,-73.00
2018-07-13T10:56:56.726Z,-73.00
2018-07-13T10:57:56.793Z,-73.00
2018-07-13T10:58:56.712Z,-74.00
2018-07-13T10:59:56.807Z,-73.00
2018-07-13T11:00:56.745Z,-72.00
2018-07-13T11:01:56.798Z,-72.00
2018-07-13T11:02:56.803Z,-72.00
2018-07-13T11:03:56.920Z,-77.00
2018-07-13T11:04:56.854Z,-76.00
2018-07-13T11:05:56.854Z,-76.00
2018-07-13T11:06:56.881Z,-76.00
2018-07-13T11:07:56.994Z,-76.00
2018-07-13T11:08:56.914Z,-76.00
2018-07-13T11:09:56.943Z,-76.00
2018-07-13T11:10:57.081Z,-76.00
2018-07-13T11:11:57.001Z,-74.00
2018-07-13T11:12:57.068Z,-71.00
2018-07-13T11:13:57.064Z,-72.00
2018-07-13T11:14:57.081Z,-70.00
2018-07-13T11:15:57.077Z,-71.00
2018-07-13T11:16:57.145Z,-70.00
2018-07-13T11:17:57.122Z,-72.00
2018-07-13T11:18:57.254Z,-71.00
2018-07-13T11:19:57.151Z,-71.00
2018-07-13T11:20:57.263Z,-71.00
2018-07-13T11:21:57.194Z,-71.00
2018-07-13T11:22:57.292Z,-71.00
2018-07-13T11:23:57.327Z,-71.00
2018-07-13T11:24:57.412Z,-71.00
2018-07-13T11:25:57.311Z,-71.00
2018-07-13T11:26:57.428Z,-71.00
2018-07-13T11:27:57.326Z,-71.00
2018-07-13T11:28:57.425Z,-71.00
2018-07-13T11:29:57.389Z,-71.00
2018-07-13T11:30:57.539Z,-71.00
2018-07-13T11:31:57.439Z,-71.00
2018-07-13T11:32:57.621Z,-71.00
2018-07-13T11:33:57.460Z,-71.00
2018-07-13T11:34:57.559Z,-71.00
2018-07-13T11:35:57.508Z,-71.00
2018-07-13T11:36:57.749Z,-71.00
2018-07-13T11:37:57.547Z,-71.00
2018-07-13T11:38:57.713Z,-71.00
2018-07-13T11:39:57.605Z,-71.00
2018-07-13T11:40:57.722Z,-71.00
2018-07-13T11:41:57.635Z,-71.00
2018-07-13T11:42:57.720Z,-70.00
2018-07-13T11:43:57.688Z,-71.00
2018-07-13T11:44:57.872Z,-71.00
2018-07-13T11:45:57.764Z,-71.00
2018-07-13T11:46:57.849Z,-72.00
2018-07-13T11:47:57.782Z,-71.00
2018-07-13T11:48:57.866Z,-73.00
2018-07-13T11:49:57.810Z,-73.00
2018-07-13T11:50:57.991Z,-73.00
2018-07-13T11:51:57.861Z,-74.00
2018-07-13T11:52:57.988Z,-73.00
2018-07-13T11:53:57.904Z,-74.00
2018-07-13T11:54:59.054Z,-73.00
2018-07-13T11:55:58.034Z,-74.00
2018-07-13T11:56:58.138Z,-74.00
2018-07-13T11:57:58.083Z,-73.00
2018-07-13T11:58:58.096Z,-73.00
2018-07-13T11:59:58.144Z,-73.00
2018-07-13T12:00:58.070Z,-73.00
2018-07-13T12:01:58.093Z,-73.00
2018-07-13T12:02:58.163Z,-73.00
2018-07-13T12:03:58.131Z,-73.00
2018-07-13T12:04:58.296Z,-74.00
2018-07-13T12:05:58.157Z,-73.00
2018-07-13T12:06:58.340Z,-73.00
2018-07-13T12:07:58.232Z,-73.00
2018-07-13T12:08:58.413Z,-73.00
2018-07-13T12:09:58.309Z,-73.00
2018-07-13T12:10:58.468Z,-73.00
2018-07-13T12:11:58.328Z,-73.00
2018-07-13T12:12:59.462Z,-74.00
2018-07-13T12:13:58.365Z,-74.00
2018-07-13T12:14:58.484Z,-73.00
2018-07-13T12:15:58.443Z,-74.00
2018-07-13T12:16:59.742Z,-74.00
2018-07-13T12:17:58.449Z,-73.00
2018-07-13T12:18:58.579Z,-73.00
2018-07-13T12:19:58.640Z,-73.00
2018-07-13T12:20:59.619Z,-73.00
2018-07-13T12:21:58.536Z,-74.00
2018-07-13T12:22:58.679Z,-74.00
2018-07-13T12:23:58.592Z,-74.00
2018-07-13T12:24:58.693Z,-74.00
2018-07-13T12:25:58.643Z,-73.00
2018-07-13T12:26:58.796Z,-73.00
2018-07-13T12:27:58.693Z,-71.00
2018-07-13T12:28:58.840Z,-71.00